Time;durP1;ratioP1;P1;durP2;ratioP2;P2;SDS_P1;SDS_P2;PMS_P1;PMS_P2;Temp;Humidity;BMP_temperature;BMP_pressure;BME280_temperature;BME280_humidity;BME280_pressure;Samples;Min_cycle;Max_cycle;Signal;HPM_P1;HPM_P2
2023/11/13 00:00:18;;;;;;;26.40;14.10;;;5.90;99.90;;;;;;4993793;28;20041;-72
2023/11/13 00:02:44;;;;;;;23.85;14.85;;;5.90;99.90;;;;;;4993172;28;20042;-72
2023/11/13 00:05:10;;;;;;;24.95;14.63;;;5.90;99.90;;;;;;4993623;28;20038;-72
2023/11/13 00:07:36;;;;;;;22.95;14.82;;;5.90;99.90;;;;;;4993558;28;20109;-72
2023/11/13 00:10:02;;;;;;;27.90;14.98;;;6.00;99.90;;;;;;4993374;28;20466;-72
2023/11/13 00:12:28;;;;;;;32.33;17.63;;;5.90;99.90;;;;;;4993445;28;20042;-72
2023/11/13 00:14:54;;;;;;;26.98;15.73;;;6.00;99.90;;;;;;4993228;28;20045;-72
2023/11/13 00:17:19;;;;;;;28.52;15.45;;;6.00;99.90;;;;;;4993477;28;20050;-72
2023/11/13 00:19:45;;;;;;;24.00;14.85;;;6.00;99.90;;;;;;4993311;28;20034;-72
2023/11/13 00:22:10;;;;;;;33.45;15.13;;;6.00;99.90;;;;;;4993132;28;20518;-72
2023/11/13 00:24:36;;;;;;;23.40;14.48;;;6.00;99.90;;;;;;4992718;28;20045;-72
2023/11/13 00:27:03;;;;;;;24.98;15.93;;;5.90;99.90;;;;;;4993110;28;20042;-72
2023/11/13 00:29:28;;;;;;;24.08;14.57;;;5.80;99.90;;;;;;4993141;28;20050;-72
2023/11/13 00:31:54;;;;;;;25.38;15.30;;;5.90;99.90;;;;;;4992806;28;20038;-72
2023/11/13 00:34:19;;;;;;;24.10;13.82;;;5.80;99.90;;;;;;4992691;28;20446;-72
2023/11/13 00:36:50;;;;;;;22.63;14.15;;;5.80;99.90;;;;;;4993047;28;20108;-72
2023/11/13 00:39:17;;;;;;;24.33;14.52;;;5.80;99.90;;;;;;4975515;28;20572;-72
2023/11/13 00:41:43;;;;;;;25.23;14.57;;;5.80;99.90;;;;;;4992806;28;20041;-72
2023/11/13 00:44:09;;;;;;;26.25;15.32;;;5.80;99.90;;;;;;4992627;28;20042;-72
2023/11/13 00:46:35;;;;;;;22.45;14.18;;;5.80;99.90;;;;;;4991624;28;20069;-72
2023/11/13 00:49:00;;;;;;;21.80;13.75;;;5.80;99.90;;;;;;4992876;28;20406;-72
2023/11/13 00:51:26;;;;;;;23.90;13.55;;;5.80;99.90;;;;;;4991711;28;20096;-72
2023/11/13 00:53:51;;;;;;;23.40;13.30;;;5.80;99.90;;;;;;4991078;28;20046;-72
2023/11/13 00:56:17;;;;;;;23.95;13.25;;;5.70;99.90;;;;;;4992882;28;20038;-72
2023/11/13 00:58:43;;;;;;;26.05;14.65;;;5.80;99.90;;;;;;4992879;28;20038;-72
2023/11/13 01:01:14;;;;;;;24.48;13.88;;;5.80;99.90;;;;;;4992602;28;20074;-72
2023/11/13 01:03:42;;;;;;;27.48;14.40;;;5.80;99.90;;;;;;4992269;28;20046;-72
2023/11/13 01:06:08;;;;;;;36.65;17.92;;;5.90;99.90;;;;;;4992528;28;20062;-72
2023/11/13 01:08:34;;;;;;;29.70;16.33;;;5.90;99.90;;;;;;4992422;28;20034;-72
2023/11/13 01:10:59;;;;;;;32.80;17.73;;;5.90;99.90;;;;;;4991231;28;20641;-72
2023/11/13 01:13:25;;;;;;;34.75;18.25;;;5.80;99.90;;;;;;4992251;28;20052;-72
2023/11/13 01:15:53;;;;;;;31.27;17.25;;;5.80;99.90;;;;;;4992556;28;20070;-72
2023/11/13 01:18:19;;;;;;;31.33;17.30;;;5.90;99.90;;;;;;4992515;28;20038;-72
2023/11/13 01:20:46;;;;;;;43.15;19.80;;;5.90;99.90;;;;;;4991022;28;20045;-72
2023/11/13 01:23:12;;;;;;;32.83;18.05;;;6.00;99.90;;;;;;4991817;28;20520;-72
2023/11/13 01:25:38;;;;;;;30.52;17.38;;;6.00;99.90;;;;;;4992526;28;20125;-72
2023/11/13 01:28:04;;;;;;;35.92;17.98;;;5.90;99.90;;;;;;4991019;28;20121;-72
2023/11/13 01:30:30;;;;;;;32.30;18.60;;;6.00;99.90;;;;;;4991019;28;20490;-72
2023/11/13 01:32:55;;;;;;;31.85;18.15;;;6.10;99.90;;;;;;4991912;28;20093;-72
2023/11/13 01:35:23;;;;;;;37.45;21.60;;;6.10;99.90;;;;;;4992142;28;20050;-72
2023/11/13 01:37:49;;;;;;;35.25;18.70;;;6.10;99.90;;;;;;4992405;28;20043;-72
2023/11/13 01:40:15;;;;;;;30.67;18.58;;;6.20;99.90;;;;;;4992390;28;20045;-72
2023/11/13 01:42:40;;;;;;;34.25;18.67;;;6.10;99.90;;;;;;4992905;28;20034;-72
2023/11/13 01:45:06;;;;;;;29.77;16.85;;;6.20;99.90;;;;;;4996046;28;20520;-72
2023/11/13 01:47:32;;;;;;;29.30;18.08;;;6.20;99.90;;;;;;4978685;28;20078;-72
2023/11/13 01:49:58;;;;;;;31.55;17.23;;;6.20;99.90;;;;;;4996027;28;20490;-72
2023/11/13 01:52:26;;;;;;;28.25;17.50;;;6.20;99.90;;;;;;4996061;28;20105;-72
2023/11/13 01:54:51;;;;;;;28.15;16.77;;;6.10;99.90;;;;;;4995721;28;20057;-72
2023/11/13 01:57:17;;;;;;;27.85;16.02;;;6.20;99.90;;;;;;4996083;28;20038;-72
2023/11/13 01:59:44;;;;;;;28.10;17.40;;;6.10;99.90;;;;;;4995857;28;20038;-72
2023/11/13 02:02:09;;;;;;;26.63;15.68;;;6.10;99.90;;;;;;4994615;28;20517;-72
2023/11/13 02:04:36;;;;;;;31.48;17.20;;;6.10;99.90;;;;;;4995318;28;20050;-72
2023/11/13 02:07:02;;;;;;;25.45;16.27;;;6.10;99.90;;;;;;4995984;28;20042;-72
2023/11/13 02:09:28;;;;;;;28.83;16.85;;;6.10;99.90;;;;;;4995737;28;20490;-72
2023/11/13 02:11:54;;;;;;;31.23;16.33;;;6.10;99.90;;;;;;4995763;28;20405;-72
2023/11/13 02:14:19;;;;;;;28.90;17.02;;;6.10;99.90;;;;;;4995362;28;20109;-72
2023/11/13 02:16:45;;;;;;;24.13;15.35;;;6.00;99.90;;;;;;4994441;28;20413;-72
2023/11/13 02:19:17;;;;;;;24.55;14.98;;;6.10;99.90;;;;;;4995439;28;20042;-72
2023/11/13 02:21:43;;;;;;;30.35;16.08;;;6.00;99.90;;;;;;4995599;28;20121;-72
2023/11/13 02:24:09;;;;;;;29.75;16.65;;;6.00;99.90;;;;;;4995466;28;20563;-72
2023/11/13 02:26:35;;;;;;;57.33;16.10;;;5.90;99.90;;;;;;4995720;28;20038;-72
2023/11/13 02:29:01;;;;;;;23.33;14.55;;;5.90;99.90;;;;;;4995636;28;20092;-72
2023/11/13 02:31:26;;;;;;;20.85;14.85;;;5.80;99.90;;;;;;4995491;28;20387;-72
2023/11/13 02:33:52;;;;;;;23.02;14.60;;;5.80;99.90;;;;;;4994813;28;20053;-72
2023/11/13 02:36:19;;;;;;;24.05;15.35;;;5.70;99.90;;;;;;4994325;28;20126;-72
2023/11/13 02:38:44;;;;;;;23.92;15.18;;;5.70;99.90;;;;;;4995572;28;20056;-72
2023/11/13 02:41:10;;;;;;;24.42;15.23;;;5.70;99.90;;;;;;4994175;28;20042;-72
2023/11/13 02:43:36;;;;;;;31.98;16.00;;;5.80;99.90;;;;;;4993850;28;20122;-72
2023/11/13 02:46:02;;;;;;;23.00;14.35;;;5.80;99.90;;;;;;4995308;28;20112;-72
2023/11/13 02:48:27;;;;;;;24.77;15.57;;;5.80;99.90;;;;;;4993998;28;20513;-71
2023/11/13 02:50:53;;;;;;;25.33;15.38;;;5.90;99.90;;;;;;4995457;28;20049;-72
2023/11/13 02:53:18;;;;;;;23.45;16.20;;;5.90;99.90;;;;;;4994573;28;20125;-72
2023/11/13 02:55:44;;;;;;;24.77;15.40;;;5.90;99.90;;;;;;4995402;28;20038;-72
2023/11/13 02:58:09;;;;;;;25.10;16.08;;;5.80;99.90;;;;;;4994950;28;20118;-72
2023/11/13 03:00:35;;;;;;;24.73;14.70;;;5.90;99.90;;;;;;4994781;28;20046;-72
2023/11/13 03:03:01;;;;;;;22.33;14.32;;;5.80;99.90;;;;;;4994319;28;20030;-71
2023/11/13 03:05:26;;;;;;;45.95;17.90;;;5.80;99.90;;;;;;4994981;28;20038;-72
2023/11/13 03:07:52;;;;;;;25.98;16.13;;;5.80;99.90;;;;;;4994818;28;20101;-72
2023/11/13 03:10:18;;;;;;;26.02;14.63;;;5.80;99.90;;;;;;4994762;28;20034;-72
2023/11/13 03:12:43;;;;;;;22.25;14.32;;;5.70;99.90;;;;;;4994355;28;20041;-72
2023/11/13 03:15:09;;;;;;;20.27;13.02;;;5.70;99.90;;;;;;4994478;28;20125;-72
2023/11/13 03:17:35;;;;;;;18.90;12.63;;;5.70;99.90;;;;;;4993123;28;20038;-72
2023/11/13 03:20:03;;;;;;;17.55;12.52;;;5.70;99.90;;;;;;4994619;28;20129;-72
2023/11/13 03:22:28;;;;;;;51.00;13.00;;;5.50;99.90;;;;;;4994263;28;20118;-72
2023/11/13 03:24:54;;;;;;;16.48;11.48;;;5.50;99.90;;;;;;4994204;28;20121;-72
2023/11/13 03:27:19;;;;;;;23.55;11.57;;;5.50;99.90;;;;;;4994372;28;20517;-72
2023/11/13 03:29:45;;;;;;;18.58;11.15;;;5.30;99.90;;;;;;4994278;28;20042;-72
2023/11/13 03:32:10;;;;;;;16.70;11.07;;;5.30;99.90;;;;;;4994005;28;20122;-72
2023/11/13 03:34:36;;;;;;;17.52;10.23;;;5.20;99.90;;;;;;4993840;28;20049;-72
2023/11/13 03:37:02;;;;;;;14.85;10.02;;;5.20;99.90;;;;;;4994301;28;20070;-72
2023/11/13 03:39:28;;;;;;;27.63;11.27;;;5.20;99.90;;;;;;4994204;28;20038;-72
2023/11/13 03:41:53;;;;;;;18.83;10.38;;;5.00;99.90;;;;;;4993706;28;20096;-72
2023/11/13 03:44:19;;;;;;;24.45;11.02;;;4.90;99.90;;;;;;4993612;28;20049;-72
2023/11/13 03:46:45;;;;;;;16.02;11.65;;;4.90;99.90;;;;;;4992610;28;20035;-72
2023/11/13 03:49:10;;;;;;;19.48;10.57;;;4.90;99.90;;;;;;4994105;28;20074;-72
2023/11/13 03:51:36;;;;;;;25.27;12.32;;;5.00;99.90;;;;;;4993930;28;20042;-72
2023/11/13 03:54:01;;;;;;;14.68;10.30;;;5.00;99.90;;;;;;4993294;28;20070;-72
2023/11/13 03:56:27;;;;;;;21.73;12.63;;;5.00;99.90;;;;;;4993848;28;20042;-72
2023/11/13 03:58:52;;;;;;;15.27;10.63;;;4.90;99.90;;;;;;4993820;28;20038;-72
2023/11/13 04:01:19;;;;;;;21.63;12.20;;;5.00;99.90;;;;;;4993547;28;20038;-72
2023/11/13 04:03:45;;;;;;;18.05;11.90;;;4.90;99.90;;;;;;4993584;28;20038;-72
2023/11/13 04:06:11;;;;;;;19.00;13.63;;;4.90;99.90;;;;;;4993081;28;20410;-72
2023/11/13 04:08:37;;;;;;;18.60;12.70;;;4.80;99.90;;;;;;4993923;28;20045;-72
2023/11/13 04:11:04;;;;;;;21.13;12.75;;;4.90;99.90;;;;;;4993643;28;20034;-72
2023/11/13 04:13:30;;;;;;;23.00;12.50;;;4.80;99.90;;;;;;4993078;28;20049;-71
2023/11/13 04:15:57;;;;;;;17.45;12.30;;;4.90;99.90;;;;;;4992090;28;20092;-71
2023/11/13 04:18:23;;;;;;;20.80;13.18;;;4.80;99.90;;;;;;4993572;28;20042;-71
2023/11/13 04:20:49;;;;;;;20.23;12.55;;;4.80;99.90;;;;;;4992123;28;20046;-71
2023/11/13 04:23:15;;;;;;;24.35;13.85;;;4.80;99.90;;;;;;4991622;28;20049;-71
2023/11/13 04:25:46;;;;;;;37.72;15.27;;;4.80;99.90;;;;;;4992100;28;20053;-71
2023/11/13 04:28:13;;;;;;;19.35;13.20;;;4.70;99.90;;;;;;4993189;28;20046;-71
2023/11/13 04:30:39;;;;;;;19.02;12.18;;;4.70;99.90;;;;;;4975515;28;20085;-74
2023/11/13 04:33:04;;;;;;;20.15;12.48;;;4.70;99.90;;;;;;4992925;28;20061;-71
2023/11/13 04:35:30;;;;;;;23.85;13.73;;;4.70;99.90;;;;;;4992066;28;20085;-71
2023/11/13 04:37:56;;;;;;;18.90;12.98;;;4.60;99.90;;;;;;4993040;28;20034;-71
2023/11/13 04:40:21;;;;;;;22.58;13.98;;;4.80;99.90;;;;;;4991817;28;20046;-71
2023/11/13 04:42:47;;;;;;;21.95;12.65;;;4.80;99.90;;;;;;5013157;23;20053;-71
2023/11/13 04:45:12;;;;;;;21.83;13.57;;;4.80;99.90;;;;;;4991278;28;20042;-71
2023/11/13 04:47:38;;;;;;;21.38;13.32;;;4.80;99.90;;;;;;4991195;28;20391;-71
2023/11/13 04:50:05;;;;;;;21.27;14.02;;;4.80;99.90;;;;;;4991519;28;20042;-71
2023/11/13 04:52:31;;;;;;;21.38;13.52;;;4.80;99.90;;;;;;4991013;28;20060;-71
2023/11/13 04:54:57;;;;;;;21.38;13.10;;;4.80;99.90;;;;;;4991748;28;20031;-71
2023/11/13 04:57:23;;;;;;;19.85;12.48;;;4.80;99.90;;;;;;4991408;28;20513;-71
2023/11/13 04:59:49;;;;;;;24.90;14.55;;;4.80;99.90;;;;;;4991097;28;20493;-71
2023/11/13 05:02:15;;;;;;;22.92;14.40;;;4.70;99.90;;;;;;4990906;28;20043;-71
2023/11/13 05:04:43;;;;;;;20.33;12.50;;;4.70;99.90;;;;;;4974630;28;20078;-71
2023/11/13 05:07:08;;;;;;;17.65;12.73;;;4.70;99.90;;;;;;4992414;28;20093;-71
2023/11/13 05:09:34;;;;;;;21.50;13.90;;;4.70;99.90;;;;;;4991232;28;20453;-71
2023/11/13 05:11:59;;;;;;;22.10;13.38;;;4.70;99.90;;;;;;4991167;28;20130;-71
2023/11/13 05:14:25;;;;;;;24.60;12.55;;;4.70;99.90;;;;;;4990533;28;20518;-71
2023/11/13 05:16:56;;;;;;;22.50;14.65;;;4.70;99.90;;;;;;4990893;28;20498;-71
2023/11/13 05:19:22;;;;;;;25.42;13.70;;;4.60;99.90;;;;;;4974730;28;20039;-71
2023/11/13 05:21:48;;;;;;;24.15;13.52;;;4.70;99.90;;;;;;4990780;28;20035;-71
2023/11/13 05:24:13;;;;;;;26.10;13.63;;;4.70;99.90;;;;;;4990801;28;20576;-71
2023/11/13 05:26:39;;;;;;;21.75;14.10;;;4.70;99.90;;;;;;4990871;28;20039;-71
2023/11/13 05:29:04;;;;;;;21.85;13.15;;;4.70;99.90;;;;;;4974735;28;20402;-71
2023/11/13 05:31:30;;;;;;;23.88;14.55;;;4.80;99.90;;;;;;4990763;28;20513;-71
2023/11/13 05:33:56;;;;;;;19.88;12.70;;;4.60;99.90;;;;;;4990758;28;20137;-71
2023/11/13 05:36:21;;;;;;;26.02;14.68;;;4.70;99.90;;;;;;4991158;28;20644;-71
2023/11/13 05:38:47;;;;;;;20.95;13.90;;;4.70;99.90;;;;;;4991040;28;20542;-71
2023/11/13 05:41:13;;;;;;;25.15;14.88;;;4.60;99.90;;;;;;4974431;28;20070;-71
2023/11/13 05:43:39;;;;;;;22.42;13.07;;;4.50;99.90;;;;;;4990179;28;20054;-71
2023/11/13 05:46:05;;;;;;;22.30;14.02;;;4.50;99.90;;;;;;4990677;28;20042;-71
2023/11/13 05:48:30;;;;;;;25.38;13.85;;;4.50;99.90;;;;;;4990518;28;20038;-71
2023/11/13 05:50:56;;;;;;;21.23;14.25;;;4.60;99.90;;;;;;4974763;28;20045;-71
2023/11/13 05:53:22;;;;;;;23.73;15.77;;;4.50;99.90;;;;;;4990147;28;20042;-71
2023/11/13 05:55:48;;;;;;;25.88;15.00;;;4.60;99.90;;;;;;4990939;28;20125;-71
2023/11/13 05:58:14;;;;;;;24.90;14.45;;;4.50;99.90;;;;;;4991775;28;20046;-71
2023/11/13 06:00:40;;;;;;;25.48;14.80;;;4.60;99.90;;;;;;4990878;28;20049;-71
2023/11/13 06:03:06;;;;;;;24.85;13.88;;;4.60;99.90;;;;;;4990045;28;20125;-71
2023/11/13 06:05:31;;;;;;;26.88;14.45;;;4.60;99.90;;;;;;4991779;28;20125;-71
2023/11/13 06:07:58;;;;;;;27.38;14.38;;;4.60;99.90;;;;;;4991769;28;20053;-71
2023/11/13 06:10:24;;;;;;;27.50;13.95;;;4.70;99.90;;;;;;5006931;28;20121;-71
2023/11/13 06:12:50;;;;;;;26.77;14.73;;;4.70;99.90;;;;;;4990018;28;20069;-71
2023/11/13 06:15:16;;;;;;;23.20;14.57;;;4.60;99.90;;;;;;4990478;28;20046;-71
2023/11/13 06:17:43;;;;;;;26.65;13.93;;;4.60;99.90;;;;;;4990796;28;20046;-74
2023/11/13 06:20:13;;;;;;;23.60;15.60;;;4.80;99.90;;;;;;4990992;28;20053;-74
2023/11/13 06:22:43;;;;;;;22.88;14.15;;;4.70;99.90;;;;;;4990456;28;20121;-74
2023/11/13 06:25:10;;;;;;;24.25;15.15;;;4.70;99.90;;;;;;4990755;28;20101;-74
2023/11/13 06:27:37;;;;;;;22.30;14.18;;;4.80;99.90;;;;;;4990819;28;20113;-73
2023/11/13 06:30:04;;;;;;;25.58;16.75;;;4.70;99.90;;;;;;4993924;28;20038;-74
2023/11/13 06:32:29;;;;;;;21.63;13.98;;;4.70;99.90;;;;;;4995596;28;20053;-70
2023/11/13 06:34:55;;;;;;;22.88;14.77;;;4.80;99.90;;;;;;4993837;28;20046;-71
2023/11/13 06:37:21;;;;;;;22.08;15.13;;;4.80;99.90;;;;;;4994497;28;20057;-71
2023/11/13 06:39:47;;;;;;;23.15;14.48;;;4.80;99.90;;;;;;4993890;28;20038;-71
2023/11/13 06:42:12;;;;;;;23.65;13.65;;;4.70;99.90;;;;;;4995115;28;20043;-70
2023/11/13 06:44:41;;;;;;;22.52;13.85;;;4.80;99.90;;;;;;4993484;28;20040;-70
2023/11/13 06:47:07;;;;;;;22.45;14.40;;;4.80;99.90;;;;;;4994309;28;20047;-71
2023/11/13 06:49:38;;;;;;;25.00;14.40;;;4.80;99.90;;;;;;4995328;28;20043;-70
2023/11/13 06:52:06;;;;;;;21.58;14.65;;;4.90;99.90;;;;;;4995405;28;20046;-70
2023/11/13 06:54:31;;;;;;;24.83;15.07;;;4.80;99.90;;;;;;4992634;28;20046;-72
2023/11/13 06:56:57;;;;;;;28.27;15.32;;;4.90;99.90;;;;;;4994368;28;20141;-72
2023/11/13 06:59:24;;;;;;;25.60;14.75;;;4.80;99.90;;;;;;4994397;28;20044;-72
2023/11/13 07:01:51;;;;;;;22.42;13.40;;;4.80;99.90;;;;;;4993511;28;20042;-72
2023/11/13 07:04:16;;;;;;;24.75;14.32;;;4.80;99.90;;;;;;4993445;28;20042;-72
2023/11/13 07:06:42;;;;;;;24.70;14.55;;;4.80;99.90;;;;;;4993532;28;20036;-72
2023/11/13 07:09:10;;;;;;;27.52;16.20;;;4.80;99.90;;;;;;4994688;28;20407;-72
2023/11/13 07:11:43;;;;;;;21.27;13.38;;;4.70;99.90;;;;;;4993667;28;20049;-72
2023/11/13 07:14:10;;;;;;;24.17;13.10;;;4.80;99.90;;;;;;4993335;28;20046;-72
2023/11/13 07:16:36;;;;;;;23.60;14.18;;;4.80;99.90;;;;;;4993499;28;20512;-72
2023/11/13 07:19:05;;;;;;;20.20;12.85;;;4.70;99.90;;;;;;4993441;28;20432;-72
2023/11/13 07:21:31;;;;;;;27.67;13.57;;;4.80;99.90;;;;;;4993222;28;20130;-72
2023/11/13 07:23:59;;;;;;;25.77;14.50;;;4.80;99.90;;;;;;4976472;28;20035;-72
2023/11/13 07:26:26;;;;;;;25.55;14.05;;;4.80;99.90;;;;;;4993172;28;20035;-72
2023/11/13 07:28:52;;;;;;;26.88;14.85;;;4.80;99.90;;;;;;4995082;28;20042;-72
2023/11/13 07:31:19;;;;;;;30.13;14.20;;;4.90;99.90;;;;;;4978054;28;20081;-72
2023/11/13 07:33:45;;;;;;;26.52;14.02;;;4.80;99.90;;;;;;4977425;28;20565;-72
2023/11/13 07:36:11;;;;;;;27.20;15.07;;;4.80;99.90;;;;;;4993807;28;20042;-72
2023/11/13 07:38:37;;;;;;;23.48;13.50;;;4.90;99.90;;;;;;4994032;28;20038;-72
2023/11/13 07:41:02;;;;;;;23.77;14.38;;;5.00;99.90;;;;;;4993652;28;20053;-72
2023/11/13 07:43:28;;;;;;;22.98;14.30;;;4.90;99.90;;;;;;4993422;28;20039;-72
2023/11/13 07:45:55;;;;;;;24.95;15.73;;;4.90;99.90;;;;;;4994184;28;20104;-72
2023/11/13 07:48:20;;;;;;;23.65;13.80;;;5.00;99.90;;;;;;4995035;28;20405;-72
2023/11/13 07:50:46;;;;;;;21.48;13.18;;;4.90;99.90;;;;;;4999654;28;20113;-72
2023/11/13 07:53:12;;;;;;;24.63;13.90;;;5.00;99.90;;;;;;5013890;28;20118;-72
2023/11/13 07:55:43;;;;;;;21.23;13.20;;;5.00;99.90;;;;;;5014055;28;20080;-73
2023/11/13 07:58:10;;;;;;;24.65;13.10;;;5.20;99.90;;;;;;5014335;28;20038;-72
2023/11/13 08:00:36;;;;;;;21.02;12.77;;;5.20;99.90;;;;;;4997237;28;20037;-72
2023/11/13 08:03:04;;;;;;;21.88;13.32;;;5.30;99.90;;;;;;5013355;28;20389;-72
2023/11/13 08:05:30;;;;;;;25.27;14.27;;;5.20;99.90;;;;;;5014110;28;20052;-72
2023/11/13 08:07:56;;;;;;;22.92;13.13;;;5.30;99.90;;;;;;5014039;28;20514;-72
2023/11/13 08:10:24;;;;;;;22.02;13.38;;;5.30;99.90;;;;;;5014933;28;20065;-73
2023/11/13 08:12:49;;;;;;;21.50;12.80;;;5.30;99.90;;;;;;4997317;28;20038;-73
2023/11/13 08:15:16;;;;;;;25.17;13.48;;;5.30;99.90;;;;;;5014355;28;20077;-72
2023/11/13 08:17:43;;;;;;;21.17;12.65;;;5.50;99.90;;;;;;5013715;28;20124;-72
2023/11/13 08:20:10;;;;;;;23.63;13.80;;;5.40;99.90;;;;;;5014211;28;20046;-72
2023/11/13 08:22:38;;;;;;;28.85;14.30;;;5.40;99.90;;;;;;5013218;28;20038;-72
2023/11/13 08:25:05;;;;;;;22.55;13.30;;;5.50;99.90;;;;;;4996533;28;20041;-72
2023/11/13 08:27:31;;;;;;;19.58;12.88;;;5.50;99.90;;;;;;5015251;28;20136;-72
2023/11/13 08:29:58;;;;;;;19.52;12.48;;;5.60;99.90;;;;;;5014872;28;20044;-73
2023/11/13 08:32:24;;;;;;;19.98;12.35;;;5.70;99.90;;;;;;5031397;28;20073;-72
2023/11/13 08:34:50;;;;;;;21.98;11.77;;;5.70;99.90;;;;;;5015400;28;20438;-73
2023/11/13 08:37:18;;;;;;;18.88;12.18;;;5.60;99.90;;;;;;5016416;28;20044;-73
2023/11/13 08:39:44;;;;;;;19.70;12.95;;;5.80;99.90;;;;;;5016646;28;20077;-73
2023/11/13 08:42:10;;;;;;;19.95;12.10;;;5.80;99.90;;;;;;5014548;28;20045;-73
2023/11/13 08:44:36;;;;;;;18.65;12.10;;;5.70;99.90;;;;;;4998385;28;20037;-73
2023/11/13 08:47:03;;;;;;;25.70;12.85;;;5.80;99.90;;;;;;5014816;28;20034;-73
2023/11/13 08:49:29;;;;;;;19.58;10.85;;;5.80;99.90;;;;;;4998781;28;20121;-73
2023/11/13 08:51:58;;;;;;;19.65;12.18;;;5.80;99.90;;;;;;5014574;28;20532;-73
2023/11/13 08:54:24;;;;;;;20.25;12.30;;;5.90;99.90;;;;;;5014245;28;20057;-73
2023/11/13 08:56:51;;;;;;;24.88;11.55;;;5.90;99.90;;;;;;5015103;28;20394;-73
2023/11/13 08:59:17;;;;;;;27.65;11.60;;;6.00;99.90;;;;;;5014761;28;20517;-72
2023/11/13 09:01:43;;;;;;;17.80;11.90;;;5.90;99.90;;;;;;5014329;28;20041;-73
2023/11/13 09:04:09;;;;;;;18.88;11.48;;;6.00;99.90;;;;;;5014171;28;20082;-73
2023/11/13 09:06:36;;;;;;;16.55;11.27;;;6.00;99.90;;;;;;4997970;28;20038;-73
2023/11/13 09:09:03;;;;;;;17.98;10.88;;;6.00;99.90;;;;;;4998141;28;20508;-73
2023/11/13 09:11:30;;;;;;;17.58;10.73;;;6.00;99.90;;;;;;5014860;28;20220;-73
2023/11/13 09:13:55;;;;;;;17.42;11.32;;;6.10;99.90;;;;;;5013804;28;20046;-73
2023/11/13 09:16:21;;;;;;;21.23;11.32;;;6.10;99.90;;;;;;5014459;28;20405;-73
2023/11/13 09:18:54;;;;;;;16.60;10.55;;;6.10;99.90;;;;;;5014218;28;20106;-73
2023/11/13 09:21:20;;;;;;;;;;;6.20;99.90;;;;;;4998735;28;20121;-73
2023/11/13 09:23:46;;;;;;;18.45;10.38;;;6.10;99.90;;;;;;4997150;28;20478;-73
2023/11/13 09:26:12;;;;;;;17.02;10.07;;;6.10;99.90;;;;;;5014566;28;20038;-72
2023/11/13 09:28:38;;;;;;;19.83;10.73;;;6.20;99.90;;;;;;5014451;28;20045;-72
2023/11/13 09:31:04;;;;;;;17.67;10.13;;;6.20;99.90;;;;;;5014229;28;20428;-73
2023/11/13 09:33:29;;;;;;;20.80;11.07;;;6.20;99.90;;;;;;5013056;28;20054;-73
2023/11/13 09:35:55;;;;;;;17.05;10.90;;;6.30;99.90;;;;;;5015042;28;20114;-72
2023/11/13 09:38:22;;;;;;;16.42;10.43;;;6.30;99.90;;;;;;4997325;28;20045;-73
2023/11/13 09:40:48;;;;;;;19.40;10.65;;;6.30;99.90;;;;;;4998081;28;20049;-72
2023/11/13 09:43:18;;;;;;;17.20;9.88;;;6.20;99.90;;;;;;5012293;28;20029;-73
2023/11/13 09:45:46;;;;;;;19.05;9.77;;;6.30;99.90;;;;;;5013293;28;20049;-73
2023/11/13 09:48:23;;;;;;;15.90;10.70;;;6.30;99.90;;;;;;5013231;28;20049;-73
2023/11/13 09:50:49;;;;;;;18.58;10.07;;;6.30;99.90;;;;;;4981201;28;20114;-73
2023/11/13 09:53:19;;;;;;;20.73;10.80;;;6.20;99.90;;;;;;4973716;28;20132;-73
2023/11/13 09:55:46;;;;;;;25.23;12.18;;;6.30;99.90;;;;;;4959112;28;20050;-73
2023/11/13 09:58:12;;;;;;;20.70;11.65;;;6.30;99.90;;;;;;4974902;28;20043;-72
2023/11/13 10:00:40;;;;;;;21.92;12.05;;;6.20;99.90;;;;;;4974131;28;20437;-73
2023/11/13 10:03:06;;;;;;;23.70;13.10;;;6.40;99.90;;;;;;4973742;28;20494;-73
2023/11/13 10:05:32;;;;;;;21.02;13.18;;;6.30;99.90;;;;;;4977839;28;20051;-73
2023/11/13 10:07:57;;;;;;;24.15;12.68;;;6.30;99.90;;;;;;4962071;28;20035;-73
2023/11/13 10:10:27;;;;;;;22.05;13.45;;;6.40;99.90;;;;;;4961328;28;20042;-73
2023/11/13 10:12:56;;;;;;;21.75;12.30;;;6.30;99.90;;;;;;4977301;28;20099;-73
2023/11/13 10:15:24;;;;;;;24.65;12.50;;;6.50;99.90;;;;;;4962013;28;20101;-73
2023/11/13 10:17:51;;;;;;;25.70;12.88;;;6.50;99.90;;;;;;4977600;28;20049;-73
2023/11/13 10:20:19;;;;;;;30.70;13.90;;;6.50;99.90;;;;;;4977461;28;20039;-73
2023/11/13 10:23:03;;;;;;;28.70;13.27;;;6.40;99.90;;;;;;4977078;28;20089;-73
2023/11/13 10:25:50;;;;;;;25.23;13.43;;;6.50;99.90;;;;;;4961177;28;20558;-73
2023/11/13 10:28:17;;;;;;;27.90;17.55;;;6.40;99.90;;;;;;4976975;28;20039;-73
2023/11/13 10:30:53;;;;;;;28.10;14.63;;;6.50;99.90;;;;;;4978996;28;20406;-73
2023/11/13 10:33:19;;;;;;;30.33;14.55;;;6.40;99.90;;;;;;5001128;28;20043;-73
2023/11/13 10:35:48;;;;;;;29.80;15.77;;;6.60;99.90;;;;;;4987055;28;20061;-73
2023/11/13 10:38:14;;;;;;;32.85;15.05;;;6.60;99.90;;;;;;4979673;28;20039;-72
2023/11/13 10:40:58;;;;;;;33.92;15.70;;;6.60;99.90;;;;;;4978258;28;20038;-73
2023/11/13 10:43:31;;;;;;;27.13;14.45;;;6.70;99.90;;;;;;4958033;28;20042;-73
2023/11/13 10:45:58;;;;;;;30.67;15.63;;;6.70;99.90;;;;;;4975954;28;20497;-73
2023/11/13 10:48:42;;;;;;;34.67;16.10;;;6.70;99.90;;;;;;4974607;28;20042;-73
2023/11/13 10:51:09;;;;;;;27.27;14.43;;;6.80;99.90;;;;;;4982307;28;20486;-74
2023/11/13 10:53:42;;;;;;;33.40;17.50;;;6.80;99.90;;;;;;4982340;28;20042;-74
2023/11/13 10:56:09;;;;;;;31.10;15.60;;;6.80;99.90;;;;;;4977997;28;20097;-74
2023/11/13 10:58:35;;;;;;;29.85;16.10;;;7.00;99.90;;;;;;4974159;28;20042;-74
2023/11/13 11:01:05;;;;;;;32.60;15.65;;;6.90;99.90;;;;;;4974053;28;20045;-74
2023/11/13 11:03:32;;;;;;;35.22;15.90;;;7.00;99.90;;;;;;4973646;28;20050;-74
2023/11/13 11:06:11;;;;;;;33.58;15.75;;;6.90;99.90;;;;;;4974094;28;20054;-74
2023/11/13 11:08:38;;;;;;;28.00;14.85;;;7.00;99.90;;;;;;4973835;28;20039;-73
2023/11/13 11:11:05;;;;;;;35.90;16.20;;;7.10;99.90;;;;;;4973766;28;20410;-72
2023/11/13 11:13:34;;;;;;;29.95;15.73;;;7.10;99.90;;;;;;4974441;28;20050;-72
2023/11/13 11:16:13;;;;;;;32.45;14.27;;;7.20;99.90;;;;;;4973978;28;20505;-72
2023/11/13 11:18:56;;;;;;;27.33;15.10;;;7.30;99.90;;;;;;4973861;28;20046;-72
2023/11/13 11:21:45;;;;;;;25.90;14.13;;;7.40;99.90;;;;;;4973660;28;20046;-72
2023/11/13 11:24:27;;;;;;;28.17;14.00;;;7.50;99.90;;;;;;4973564;28;20047;-72
2023/11/13 11:26:58;;;;;;;26.05;13.18;;;7.50;99.90;;;;;;4973765;28;20075;-72
2023/11/13 11:29:35;;;;;;;26.52;14.85;;;7.50;99.90;;;;;;4973671;28;20046;-72
2023/11/13 11:32:13;;;;;;;23.15;12.38;;;7.50;99.90;;;;;;4957451;28;20051;-72
2023/11/13 11:34:44;;;;;;;26.25;13.00;;;7.60;99.90;;;;;;4973103;28;20517;-72
2023/11/13 11:37:15;;;;;;;25.58;12.70;;;7.60;99.90;;;;;;4974736;28;20384;-72
2023/11/13 11:39:48;;;;;;;23.50;13.50;;;7.60;99.90;;;;;;4957673;28;20046;-72
2023/11/13 11:42:24;;;;;;;23.25;13.55;;;7.70;99.90;;;;;;4994503;28;20034;-73
2023/11/13 11:44:53;;;;;;;23.05;12.43;;;7.70;99.90;;;;;;4992777;28;20129;-72
2023/11/13 11:47:24;;;;;;;27.48;12.80;;;7.80;99.90;;;;;;4994151;28;20041;-72
2023/11/13 11:49:50;;;;;;;23.80;12.85;;;7.70;99.90;;;;;;4993854;28;20513;-72
2023/11/13 11:52:17;;;;;;;24.67;12.90;;;7.90;99.90;;;;;;4992713;28;20057;-71
2023/11/13 11:54:43;;;;;;;27.52;13.98;;;7.90;99.90;;;;;;4992260;28;20112;-71
2023/11/13 11:57:11;;;;;;;24.90;12.70;;;7.90;99.90;;;;;;4992682;28;20502;-71
2023/11/13 11:59:37;;;;;;;24.35;12.75;;;8.10;99.90;;;;;;4992574;28;20129;-72
2023/11/13 12:02:03;;;;;;;22.55;12.68;;;8.10;99.90;;;;;;4992264;28;20129;-71
2023/11/13 12:04:30;;;;;;;23.38;13.73;;;8.10;99.90;;;;;;4992073;28;20085;-72
2023/11/13 12:06:59;;;;;;;26.48;14.40;;;8.20;99.90;;;;;;4992328;28;20560;-72
2023/11/13 12:09:25;;;;;;;23.88;13.25;;;8.10;99.90;;;;;;4992618;28;20367;-72
2023/11/13 12:11:52;;;;;;;22.13;12.77;;;8.20;99.90;;;;;;4992632;28;20061;-72
2023/11/13 12:14:18;;;;;;;24.88;14.20;;;8.20;99.90;;;;;;4991849;28;20088;-71
2023/11/13 12:16:45;;;;;;;22.88;12.73;;;8.30;99.90;;;;;;4992174;28;20039;-72
2023/11/13 12:19:14;;;;;;;24.80;12.43;;;8.30;99.90;;;;;;4992084;28;20042;-72
2023/11/13 12:21:43;;;;;;;24.92;13.25;;;8.30;99.90;;;;;;4992126;28;20043;-71
2023/11/13 12:24:16;;;;;;;31.23;13.48;;;8.30;99.90;;;;;;4991607;28;20045;-72
2023/11/13 12:26:44;;;;;;;25.13;13.13;;;8.40;99.90;;;;;;4991741;28;20042;-72
2023/11/13 12:29:17;;;;;;;24.77;13.32;;;8.40;99.90;;;;;;4973935;28;20034;-72
2023/11/13 12:31:44;;;;;;;20.83;11.68;;;8.50;99.90;;;;;;4991530;28;20084;-72
2023/11/13 12:34:14;;;;;;;23.17;12.02;;;8.50;99.90;;;;;;4991118;28;20042;-72
2023/11/13 12:36:42;;;;;;;24.13;12.10;;;8.60;99.90;;;;;;4991750;28;20042;-72